Terminal Aerodrome Forecast
Issued by NWS

Home | Current Version | Previous Version | Graphics & Text | Print | Product List | Glossary On
Versions: 1 2 3 4 5 6 7 8 9 10 11 12 13 14 15 16 17 18 19 20 21 22 23 24 25 26 27
000
FTUS45 KGGW 252300
TAFOLF
TAF
KOLF 252321Z 2600/2624 VRB04KT P6SM SCT030 BKN120
     FM261000 00000KT 1/4SM FG VV001
     FM261500 VRB04KT P6SM FEW040 SCT200=

USA.gov is the U.S. government's official web portal to all federal, state and local government web resources and services.